sensor_id;sensor_type;location;lat;lon;timestamp;P1;durP1;ratioP1;P2;durP2;ratioP2
10056;SDS011;5068;51.286;7.518;2024-02-04T00:00:18;3.53;;;2.60;;
10056;SDS011;5068;51.286;7.518;2024-02-04T00:01:52;3.08;;;2.60;;
10056;SDS011;5068;51.286;7.518;2024-02-04T00:03:24;4.20;;;2.80;;
10056;SDS011;5068;51.286;7.518;2024-02-04T00:04:58;4.40;;;2.55;;
10056;SDS011;5068;51.286;7.518;2024-02-04T00:06:30;4.18;;;2.50;;
10056;SDS011;5068;51.286;7.518;2024-02-04T00:08:04;2.58;;;2.10;;
10056;SDS011;5068;51.286;7.518;2024-02-04T00:09:36;3.03;;;2.13;;
10056;SDS011;5068;51.286;7.518;2024-02-04T00:11:10;3.15;;;1.95;;
10056;SDS011;5068;51.286;7.518;2024-02-04T00:12:44;3.08;;;2.13;;
10056;SDS011;5068;51.286;7.518;2024-02-04T00:15:50;2.20;;;1.77;;
10056;SDS011;5068;51.286;7.518;2024-02-04T00:17:25;4.18;;;2.08;;
10056;SDS011;5068;51.286;7.518;2024-02-04T00:19:01;2.80;;;1.85;;
10056;SDS011;5068;51.286;7.518;2024-02-04T00:20:34;2.10;;;1.73;;
10056;SDS011;5068;51.286;7.518;2024-02-04T00:22:07;2.72;;;1.70;;
10056;SDS011;5068;51.286;7.518;2024-02-04T00:23:40;2.92;;;2.20;;
10056;SDS011;5068;51.286;7.518;2024-02-04T00:25:12;3.05;;;1.77;;
10056;SDS011;5068;51.286;7.518;2024-02-04T00:26:46;2.45;;;1.52;;
10056;SDS011;5068;51.286;7.518;2024-02-04T00:28:20;2.70;;;1.75;;
10056;SDS011;5068;51.286;7.518;2024-02-04T00:31:26;3.67;;;1.50;;
10056;SDS011;5068;51.286;7.518;2024-02-04T00:32:59;1.92;;;1.60;;
10056;SDS011;5068;51.286;7.518;2024-02-04T00:34:34;2.13;;;1.60;;
10056;SDS011;5068;51.286;7.518;2024-02-04T00:36:07;3.03;;;2.10;;
10056;SDS011;5068;51.286;7.518;2024-02-04T00:37:40;2.35;;;1.95;;
10056;SDS011;5068;51.286;7.518;2024-02-04T00:39:12;2.78;;;1.77;;
10056;SDS011;5068;51.286;7.518;2024-02-04T00:40:46;2.47;;;1.60;;
10056;SDS011;5068;51.286;7.518;2024-02-04T00:42:18;2.38;;;1.70;;
10056;SDS011;5068;51.286;7.518;2024-02-04T00:43:53;2.28;;;1.75;;
10056;SDS011;5068;51.286;7.518;2024-02-04T00:45:25;2.70;;;2.10;;
10056;SDS011;5068;51.286;7.518;2024-02-04T00:46:58;2.55;;;1.60;;
10056;SDS011;5068;51.286;7.518;2024-02-04T00:48:30;2.15;;;1.67;;
10056;SDS011;5068;51.286;7.518;2024-02-04T00:50:05;1.92;;;1.60;;
10056;SDS011;5068;51.286;7.518;2024-02-04T00:51:39;4.78;;;1.85;;
10056;SDS011;5068;51.286;7.518;2024-02-04T00:53:12;1.92;;;1.50;;
10056;SDS011;5068;51.286;7.518;2024-02-04T00:54:46;2.30;;;1.90;;
10056;SDS011;5068;51.286;7.518;2024-02-04T00:56:20;2.50;;;2.05;;
10056;SDS011;5068;51.286;7.518;2024-02-04T00:57:52;2.65;;;1.60;;
10056;SDS011;5068;51.286;7.518;2024-02-04T00:59:28;2.08;;;1.70;;
10056;SDS011;5068;51.286;7.518;2024-02-04T01:01:00;1.92;;;1.42;;
10056;SDS011;5068;51.286;7.518;2024-02-04T01:02:34;2.92;;;1.58;;
10056;SDS011;5068;51.286;7.518;2024-02-04T01:04:06;2.53;;;1.70;;
10056;SDS011;5068;51.286;7.518;2024-02-04T01:05:39;1.73;;;1.55;;
10056;SDS011;5068;51.286;7.518;2024-02-04T01:07:12;2.78;;;1.70;;
10056;SDS011;5068;51.286;7.518;2024-02-04T01:08:46;3.05;;;1.90;;
10056;SDS011;5068;51.286;7.518;2024-02-04T01:10:18;2.13;;;1.60;;
10056;SDS011;5068;51.286;7.518;2024-02-04T01:11:51;2.15;;;1.35;;
10056;SDS011;5068;51.286;7.518;2024-02-04T01:13:24;2.55;;;1.60;;
10056;SDS011;5068;51.286;7.518;2024-02-04T01:14:59;1.92;;;1.48;;
10056;SDS011;5068;51.286;7.518;2024-02-04T01:16:31;2.50;;;1.50;;
10056;SDS011;5068;51.286;7.518;2024-02-04T01:18:04;1.60;;;1.23;;
10056;SDS011;5068;51.286;7.518;2024-02-04T01:19:36;1.95;;;1.27;;
10056;SDS011;5068;51.286;7.518;2024-02-04T01:21:10;1.40;;;1.00;;
10056;SDS011;5068;51.286;7.518;2024-02-04T01:22:43;1.13;;;0.82;;
10056;SDS011;5068;51.286;7.518;2024-02-04T01:24:16;1.30;;;0.95;;
10056;SDS011;5068;51.286;7.518;2024-02-04T01:25:49;1.60;;;1.10;;
10056;SDS011;5068;51.286;7.518;2024-02-04T01:27:21;1.30;;;1.00;;
10056;SDS011;5068;51.286;7.518;2024-02-04T01:28:54;0.90;;;0.73;;
10056;SDS011;5068;51.286;7.518;2024-02-04T01:30:29;1.55;;;1.02;;
10056;SDS011;5068;51.286;7.518;2024-02-04T01:32:03;1.33;;;0.70;;
10056;SDS011;5068;51.286;7.518;2024-02-04T01:33:37;1.20;;;0.90;;
10056;SDS011;5068;51.286;7.518;2024-02-04T01:35:10;1.35;;;0.80;;
10056;SDS011;5068;51.286;7.518;2024-02-04T01:36:42;0.90;;;0.60;;
10056;SDS011;5068;51.286;7.518;2024-02-04T01:38:15;1.63;;;0.47;;
10056;SDS011;5068;51.286;7.518;2024-02-04T01:39:49;1.42;;;0.55;;
10056;SDS011;5068;51.286;7.518;2024-02-04T01:41:21;1.15;;;0.50;;
10056;SDS011;5068;51.286;7.518;2024-02-04T01:42:56;0.70;;;0.30;;
10056;SDS011;5068;51.286;7.518;2024-02-04T01:44:28;0.45;;;0.30;;
10056;SDS011;5068;51.286;7.518;2024-02-04T01:46:03;0.50;;;0.20;;
10056;SDS011;5068;51.286;7.518;2024-02-04T01:47:39;0.50;;;0.10;;
10056;SDS011;5068;51.286;7.518;2024-02-04T01:49:12;0.30;;;0.10;;
10056;SDS011;5068;51.286;7.518;2024-02-04T01:50:45;0.20;;;0.10;;
10056;SDS011;5068;51.286;7.518;2024-02-04T01:52:20;0.28;;;0.10;;
10056;SDS011;5068;51.286;7.518;2024-02-04T01:53:52;0.15;;;0.10;;
10056;SDS011;5068;51.286;7.518;2024-02-04T01:55:25;0.10;;;0.00;;
10056;SDS011;5068;51.286;7.518;2024-02-04T01:56:58;0.20;;;0.10;;
10056;SDS011;5068;51.286;7.518;2024-02-04T01:58:33;0.30;;;0.00;;
10056;SDS011;5068;51.286;7.518;2024-02-04T02:00:06;0.10;;;0.00;;
10056;SDS011;5068;51.286;7.518;2024-02-04T02:01:44;0.20;;;0.00;;
10056;SDS011;5068;51.286;7.518;2024-02-04T02:03:17;0.30;;;0.10;;
10056;SDS011;5068;51.286;7.518;2024-02-04T02:04:52;0.08;;;0.00;;
10056;SDS011;5068;51.286;7.518;2024-02-04T02:06:24;0.03;;;0.00;;
10056;SDS011;5068;51.286;7.518;2024-02-04T02:07:59;0.10;;;0.00;;
10056;SDS011;5068;51.286;7.518;2024-02-04T02:09:31;0.80;;;0.10;;
10056;SDS011;5068;51.286;7.518;2024-02-04T02:11:05;0.15;;;0.00;;
10056;SDS011;5068;51.286;7.518;2024-02-04T02:12:47;0.57;;;0.00;;
10056;SDS011;5068;51.286;7.518;2024-02-04T02:14:26;0.17;;;0.03;;
10056;SDS011;5068;51.286;7.518;2024-02-04T02:16:05;0.20;;;0.10;;
10056;SDS011;5068;51.286;7.518;2024-02-04T02:19:28;0.30;;;0.00;;
10056;SDS011;5068;51.286;7.518;2024-02-04T02:21:19;0.10;;;0.00;;
10056;SDS011;5068;51.286;7.518;2024-02-04T02:23:10;0.20;;;0.10;;
10056;SDS011;5068;51.286;7.518;2024-02-04T02:24:54;0.40;;;0.03;;
10056;SDS011;5068;51.286;7.518;2024-02-04T02:26:31;0.30;;;0.00;;
10056;SDS011;5068;51.286;7.518;2024-02-04T02:28:05;0.28;;;0.10;;
10056;SDS011;5068;51.286;7.518;2024-02-04T02:29:39;0.10;;;0.00;;
10056;SDS011;5068;51.286;7.518;2024-02-04T02:31:11;0.55;;;0.10;;
10056;SDS011;5068;51.286;7.518;2024-02-04T02:32:44;0.10;;;0.08;;
10056;SDS011;5068;51.286;7.518;2024-02-04T02:34:19;0.20;;;0.10;;
10056;SDS011;5068;51.286;7.518;2024-02-04T02:36:10;0.30;;;0.10;;
10056;SDS011;5068;51.286;7.518;2024-02-04T02:37:53;0.38;;;0.10;;
10056;SDS011;5068;51.286;7.518;2024-02-04T02:39:37;0.50;;;0.38;;
10056;SDS011;5068;51.286;7.518;2024-02-04T02:41:18;0.45;;;0.30;;
10056;SDS011;5068;51.286;7.518;2024-02-04T02:42:54;0.47;;;0.30;;
10056;SDS011;5068;51.286;7.518;2024-02-04T02:44:30;0.77;;;0.30;;
10056;SDS011;5068;51.286;7.518;2024-02-04T02:46:06;1.10;;;0.40;;
10056;SDS011;5068;51.286;7.518;2024-02-04T02:47:39;0.60;;;0.40;;
10056;SDS011;5068;51.286;7.518;2024-02-04T02:49:15;0.70;;;0.45;;
10056;SDS011;5068;51.286;7.518;2024-02-04T02:50:48;0.70;;;0.50;;
10056;SDS011;5068;51.286;7.518;2024-02-04T02:52:21;0.90;;;0.40;;
10056;SDS011;5068;51.286;7.518;2024-02-04T02:53:53;0.95;;;0.40;;
10056;SDS011;5068;51.286;7.518;2024-02-04T02:55:26;0.63;;;0.35;;
10056;SDS011;5068;51.286;7.518;2024-02-04T02:57:00;0.80;;;0.52;;
10056;SDS011;5068;51.286;7.518;2024-02-04T02:58:33;0.82;;;0.50;;
10056;SDS011;5068;51.286;7.518;2024-02-04T03:00:06;1.00;;;0.50;;
10056;SDS011;5068;51.286;7.518;2024-02-04T03:01:40;0.80;;;0.50;;
10056;SDS011;5068;51.286;7.518;2024-02-04T03:03:13;0.80;;;0.47;;
10056;SDS011;5068;51.286;7.518;2024-02-04T03:04:46;0.90;;;0.50;;
10056;SDS011;5068;51.286;7.518;2024-02-04T03:06:18;1.95;;;0.50;;
10056;SDS011;5068;51.286;7.518;2024-02-04T03:07:52;0.70;;;0.40;;
10056;SDS011;5068;51.286;7.518;2024-02-04T03:09:24;1.70;;;0.63;;
10056;SDS011;5068;51.286;7.518;2024-02-04T03:10:57;0.73;;;0.40;;
10056;SDS011;5068;51.286;7.518;2024-02-04T03:12:30;0.60;;;0.40;;
10056;SDS011;5068;51.286;7.518;2024-02-04T03:14:04;0.70;;;0.40;;
10056;SDS011;5068;51.286;7.518;2024-02-04T03:15:36;0.88;;;0.52;;
10056;SDS011;5068;51.286;7.518;2024-02-04T03:17:09;2.05;;;0.60;;
10056;SDS011;5068;51.286;7.518;2024-02-04T03:18:43;1.20;;;0.50;;
10056;SDS011;5068;51.286;7.518;2024-02-04T03:20:17;1.08;;;0.50;;
10056;SDS011;5068;51.286;7.518;2024-02-04T03:21:50;2.25;;;0.47;;
10056;SDS011;5068;51.286;7.518;2024-02-04T03:23:23;1.10;;;0.40;;
10056;SDS011;5068;51.286;7.518;2024-02-04T03:24:56;1.27;;;0.40;;
10056;SDS011;5068;51.286;7.518;2024-02-04T03:26:28;1.10;;;0.60;;
10056;SDS011;5068;51.286;7.518;2024-02-04T03:28:03;1.38;;;0.40;;
10056;SDS011;5068;51.286;7.518;2024-02-04T03:29:35;1.15;;;0.60;;
10056;SDS011;5068;51.286;7.518;2024-02-04T03:31:09;1.90;;;0.50;;
10056;SDS011;5068;51.286;7.518;2024-02-04T03:32:41;2.10;;;0.70;;
10056;SDS011;5068;51.286;7.518;2024-02-04T03:34:14;1.30;;;0.73;;
10056;SDS011;5068;51.286;7.518;2024-02-04T03:35:47;1.83;;;0.70;;
10056;SDS011;5068;51.286;7.518;2024-02-04T03:37:20;1.10;;;0.57;;
10056;SDS011;5068;51.286;7.518;2024-02-04T03:38:52;1.00;;;0.63;;
10056;SDS011;5068;51.286;7.518;2024-02-04T03:40:26;2.80;;;1.70;;
10056;SDS011;5068;51.286;7.518;2024-02-04T03:41:58;1.63;;;1.20;;
10056;SDS011;5068;51.286;7.518;2024-02-04T03:43:33;1.98;;;1.40;;
10056;SDS011;5068;51.286;7.518;2024-02-04T03:45:07;2.22;;;1.40;;
10056;SDS011;5068;51.286;7.518;2024-02-04T03:46:42;2.47;;;1.20;;
10056;SDS011;5068;51.286;7.518;2024-02-04T03:48:14;2.67;;;1.77;;
10056;SDS011;5068;51.286;7.518;2024-02-04T03:49:48;2.50;;;1.73;;
10056;SDS011;5068;51.286;7.518;2024-02-04T03:51:21;2.53;;;1.70;;
10056;SDS011;5068;51.286;7.518;2024-02-04T03:52:54;3.53;;;2.33;;
10056;SDS011;5068;51.286;7.518;2024-02-04T03:54:28;3.63;;;2.10;;
10056;SDS011;5068;51.286;7.518;2024-02-04T03:56:02;3.28;;;2.25;;
10056;SDS011;5068;51.286;7.518;2024-02-04T03:57:35;3.15;;;2.60;;
10056;SDS011;5068;51.286;7.518;2024-02-04T03:59:10;4.25;;;2.95;;
10056;SDS011;5068;51.286;7.518;2024-02-04T04:00:42;4.90;;;3.03;;
10056;SDS011;5068;51.286;7.518;2024-02-04T04:02:15;3.88;;;3.25;;
10056;SDS011;5068;51.286;7.518;2024-02-04T04:03:48;4.10;;;3.05;;
10056;SDS011;5068;51.286;7.518;2024-02-04T04:05:21;4.30;;;3.10;;
10056;SDS011;5068;51.286;7.518;2024-02-04T04:06:54;4.93;;;3.28;;
10056;SDS011;5068;51.286;7.518;2024-02-04T04:08:27;4.40;;;3.35;;
10056;SDS011;5068;51.286;7.518;2024-02-04T04:10:00;5.32;;;3.50;;
10056;SDS011;5068;51.286;7.518;2024-02-04T04:11:32;4.00;;;3.30;;
10056;SDS011;5068;51.286;7.518;2024-02-04T04:13:05;4.90;;;3.63;;
10056;SDS011;5068;51.286;7.518;2024-02-04T04:14:39;4.47;;;3.50;;
10056;SDS011;5068;51.286;7.518;2024-02-04T04:16:12;3.90;;;2.75;;
10056;SDS011;5068;51.286;7.518;2024-02-04T04:17:44;4.40;;;3.08;;
10056;SDS011;5068;51.286;7.518;2024-02-04T04:19:17;4.35;;;2.95;;
10056;SDS011;5068;51.286;7.518;2024-02-04T04:20:50;4.47;;;3.17;;
10056;SDS011;5068;51.286;7.518;2024-02-04T04:22:23;4.13;;;2.97;;
10056;SDS011;5068;51.286;7.518;2024-02-04T04:23:55;4.95;;;3.30;;
10056;SDS011;5068;51.286;7.518;2024-02-04T04:25:28;4.15;;;2.78;;
10056;SDS011;5068;51.286;7.518;2024-02-04T04:27:00;3.35;;;2.38;;
10056;SDS011;5068;51.286;7.518;2024-02-04T04:28:34;3.53;;;2.50;;
10056;SDS011;5068;51.286;7.518;2024-02-04T04:30:08;3.08;;;2.28;;
10056;SDS011;5068;51.286;7.518;2024-02-04T04:31:42;2.88;;;1.83;;
10056;SDS011;5068;51.286;7.518;2024-02-04T04:33:14;3.20;;;2.28;;
10056;SDS011;5068;51.286;7.518;2024-02-04T04:34:47;2.83;;;1.90;;
10056;SDS011;5068;51.286;7.518;2024-02-04T04:36:20;3.25;;;2.00;;
10056;SDS011;5068;51.286;7.518;2024-02-04T04:37:53;3.15;;;2.10;;
10056;SDS011;5068;51.286;7.518;2024-02-04T04:39:25;2.00;;;1.42;;
10056;SDS011;5068;51.286;7.518;2024-02-04T04:40:58;2.88;;;2.00;;
10056;SDS011;5068;51.286;7.518;2024-02-04T04:42:31;1.90;;;1.30;;
10056;SDS011;5068;51.286;7.518;2024-02-04T04:44:04;1.40;;;0.95;;
10056;SDS011;5068;51.286;7.518;2024-02-04T04:45:38;1.55;;;1.00;;
10056;SDS011;5068;51.286;7.518;2024-02-04T04:47:12;1.05;;;0.60;;
10056;SDS011;5068;51.286;7.518;2024-02-04T04:48:46;1.30;;;0.90;;
10056;SDS011;5068;51.286;7.518;2024-02-04T04:50:20;1.00;;;0.50;;
10056;SDS011;5068;51.286;7.518;2024-02-04T04:51:53;1.10;;;0.63;;
10056;SDS011;5068;51.286;7.518;2024-02-04T04:53:27;1.33;;;0.73;;
10056;SDS011;5068;51.286;7.518;2024-02-04T04:54:59;1.20;;;0.70;;
10056;SDS011;5068;51.286;7.518;2024-02-04T04:56:37;0.93;;;0.70;;
10056;SDS011;5068;51.286;7.518;2024-02-04T04:58:13;1.63;;;0.93;;
10056;SDS011;5068;51.286;7.518;2024-02-04T04:59:46;1.58;;;1.10;;
10056;SDS011;5068;51.286;7.518;2024-02-04T05:01:20;1.85;;;1.40;;
10056;SDS011;5068;51.286;7.518;2024-02-04T05:02:53;2.78;;;1.63;;
10056;SDS011;5068;51.286;7.518;2024-02-04T05:04:27;2.22;;;1.77;;
10056;SDS011;5068;51.286;7.518;2024-02-04T05:05:59;3.85;;;2.20;;
10056;SDS011;5068;51.286;7.518;2024-02-04T05:07:33;2.47;;;1.92;;
10056;SDS011;5068;51.286;7.518;2024-02-04T05:09:05;3.28;;;2.30;;
10056;SDS011;5068;51.286;7.518;2024-02-04T05:10:38;3.08;;;2.20;;
10056;SDS011;5068;51.286;7.518;2024-02-04T05:12:12;3.50;;;2.70;;
10056;SDS011;5068;51.286;7.518;2024-02-04T05:13:44;3.38;;;2.50;;
10056;SDS011;5068;51.286;7.518;2024-02-04T05:15:17;3.45;;;2.42;;
10056;SDS011;5068;51.286;7.518;2024-02-04T05:16:51;3.92;;;2.72;;
10056;SDS011;5068;51.286;7.518;2024-02-04T05:18:24;3.50;;;2.60;;
10056;SDS011;5068;51.286;7.518;2024-02-04T05:19:58;3.70;;;2.75;;
10056;SDS011;5068;51.286;7.518;2024-02-04T05:21:31;3.22;;;2.67;;
10056;SDS011;5068;51.286;7.518;2024-02-04T05:23:04;4.80;;;2.95;;
10056;SDS011;5068;51.286;7.518;2024-02-04T05:24:37;3.70;;;2.80;;
10056;SDS011;5068;51.286;7.518;2024-02-04T05:26:09;4.25;;;3.03;;
10056;SDS011;5068;51.286;7.518;2024-02-04T05:27:42;4.55;;;3.00;;
10056;SDS011;5068;51.286;7.518;2024-02-04T05:29:15;5.22;;;3.70;;
10056;SDS011;5068;51.286;7.518;2024-02-04T05:30:48;4.45;;;3.20;;
10056;SDS011;5068;51.286;7.518;2024-02-04T05:32:22;5.57;;;3.40;;
10056;SDS011;5068;51.286;7.518;2024-02-04T05:33:55;6.15;;;3.42;;
10056;SDS011;5068;51.286;7.518;2024-02-04T05:35:28;4.38;;;3.08;;
10056;SDS011;5068;51.286;7.518;2024-02-04T05:37:01;3.78;;;3.38;;
10056;SDS011;5068;51.286;7.518;2024-02-04T05:38:34;5.03;;;3.22;;
10056;SDS011;5068;51.286;7.518;2024-02-04T05:40:07;4.00;;;3.30;;
10056;SDS011;5068;51.286;7.518;2024-02-04T05:41:40;5.18;;;3.28;;
10056;SDS011;5068;51.286;7.518;2024-02-04T05:43:14;5.32;;;3.25;;
10056;SDS011;5068;51.286;7.518;2024-02-04T05:44:47;4.43;;;3.90;;
10056;SDS011;5068;51.286;7.518;2024-02-04T05:46:21;5.10;;;3.35;;
10056;SDS011;5068;51.286;7.518;2024-02-04T05:47:54;5.47;;;3.22;;
10056;SDS011;5068;51.286;7.518;2024-02-04T05:49:28;5.57;;;3.70;;
10056;SDS011;5068;51.286;7.518;2024-02-04T05:51:00;4.50;;;3.55;;
10056;SDS011;5068;51.286;7.518;2024-02-04T05:52:33;5.50;;;3.88;;
10056;SDS011;5068;51.286;7.518;2024-02-04T05:54:05;4.72;;;3.55;;
10056;SDS011;5068;51.286;7.518;2024-02-04T05:55:39;4.45;;;3.38;;
10056;SDS011;5068;51.286;7.518;2024-02-04T05:57:11;4.97;;;3.75;;
10056;SDS011;5068;51.286;7.518;2024-02-04T05:58:44;4.88;;;3.63;;
10056;SDS011;5068;51.286;7.518;2024-02-04T06:00:17;5.20;;;4.05;;
10056;SDS011;5068;51.286;7.518;2024-02-04T06:01:51;6.03;;;3.65;;
10056;SDS011;5068;51.286;7.518;2024-02-04T06:03:25;5.65;;;4.07;;
10056;SDS011;5068;51.286;7.518;2024-02-04T06:05:01;4.43;;;3.35;;
10056;SDS011;5068;51.286;7.518;2024-02-04T06:06:34;5.22;;;4.50;;
10056;SDS011;5068;51.286;7.518;2024-02-04T06:08:07;6.40;;;4.10;;
10056;SDS011;5068;51.286;7.518;2024-02-04T06:09:39;5.63;;;4.03;;
10056;SDS011;5068;51.286;7.518;2024-02-04T06:11:13;5.97;;;4.30;;
10056;SDS011;5068;51.286;7.518;2024-02-04T06:12:45;5.07;;;3.97;;
10056;SDS011;5068;51.286;7.518;2024-02-04T06:14:18;5.93;;;3.60;;
10056;SDS011;5068;51.286;7.518;2024-02-04T06:15:51;5.25;;;3.92;;
10056;SDS011;5068;51.286;7.518;2024-02-04T06:17:24;5.30;;;3.97;;
10056;SDS011;5068;51.286;7.518;2024-02-04T06:18:57;5.03;;;3.97;;
10056;SDS011;5068;51.286;7.518;2024-02-04T06:20:31;5.22;;;3.95;;
10056;SDS011;5068;51.286;7.518;2024-02-04T06:22:04;5.72;;;3.97;;
10056;SDS011;5068;51.286;7.518;2024-02-04T06:23:38;5.63;;;4.13;;
10056;SDS011;5068;51.286;7.518;2024-02-04T06:25:11;4.68;;;3.88;;
10056;SDS011;5068;51.286;7.518;2024-02-04T06:26:44;6.53;;;4.18;;
10056;SDS011;5068;51.286;7.518;2024-02-04T06:28:33;5.51;;;4.38;;
10056;SDS011;5068;51.286;7.518;2024-02-04T06:30:06;5.30;;;4.00;;
10056;SDS011;5068;51.286;7.518;2024-02-04T06:31:43;6.30;;;4.82;;
10056;SDS011;5068;51.286;7.518;2024-02-04T06:33:17;6.72;;;4.43;;
10056;SDS011;5068;51.286;7.518;2024-02-04T06:34:51;6.40;;;4.28;;
10056;SDS011;5068;51.286;7.518;2024-02-04T06:36:27;5.75;;;4.43;;
10056;SDS011;5068;51.286;7.518;2024-02-04T06:37:59;5.65;;;4.10;;
10056;SDS011;5068;51.286;7.518;2024-02-04T06:39:32;5.65;;;4.30;;
10056;SDS011;5068;51.286;7.518;2024-02-04T06:41:06;6.40;;;4.20;;
10056;SDS011;5068;51.286;7.518;2024-02-04T06:42:38;5.55;;;4.22;;
10056;SDS011;5068;51.286;7.518;2024-02-04T06:44:12;6.13;;;4.60;;
10056;SDS011;5068;51.286;7.518;2024-02-04T06:45:44;5.75;;;4.35;;
10056;SDS011;5068;51.286;7.518;2024-02-04T06:47:17;5.72;;;4.43;;
10056;SDS011;5068;51.286;7.518;2024-02-04T06:48:49;6.53;;;4.78;;
10056;SDS011;5068;51.286;7.518;2024-02-04T06:50:24;5.82;;;4.40;;
10056;SDS011;5068;51.286;7.518;2024-02-04T06:51:56;7.93;;;4.70;;
10056;SDS011;5068;51.286;7.518;2024-02-04T06:53:29;8.00;;;4.78;;
10056;SDS011;5068;51.286;7.518;2024-02-04T06:55:02;6.93;;;4.68;;
10056;SDS011;5068;51.286;7.518;2024-02-04T06:56:36;6.32;;;4.90;;
10056;SDS011;5068;51.286;7.518;2024-02-04T06:58:08;7.35;;;4.38;;
10056;SDS011;5068;51.286;7.518;2024-02-04T06:59:41;7.90;;;4.85;;
10056;SDS011;5068;51.286;7.518;2024-02-04T07:01:14;7.07;;;4.47;;
10056;SDS011;5068;51.286;7.518;2024-02-04T07:02:47;7.63;;;4.85;;
10056;SDS011;5068;51.286;7.518;2024-02-04T07:04:20;7.18;;;4.43;;
10056;SDS011;5068;51.286;7.518;2024-02-04T07:05:57;6.30;;;4.25;;
10056;SDS011;5068;51.286;7.518;2024-02-04T07:07:29;6.30;;;4.20;;
10056;SDS011;5068;51.286;7.518;2024-02-04T07:09:03;5.68;;;4.28;;
10056;SDS011;5068;51.286;7.518;2024-02-04T07:10:35;5.75;;;4.28;;
10056;SDS011;5068;51.286;7.518;2024-02-04T07:12:08;5.90;;;4.03;;
10056;SDS011;5068;51.286;7.518;2024-02-04T07:13:40;4.88;;;3.83;;
10056;SDS011;5068;51.286;7.518;2024-02-04T07:15:14;5.93;;;4.07;;
10056;SDS011;5068;51.286;7.518;2024-02-04T07:16:46;5.65;;;4.07;;
10056;SDS011;5068;51.286;7.518;2024-02-04T07:18:19;5.88;;;4.25;;
10056;SDS011;5068;51.286;7.518;2024-02-04T07:19:53;6.07;;;3.67;;
10056;SDS011;5068;51.286;7.518;2024-02-04T07:21:27;5.13;;;3.42;;
10056;SDS011;5068;51.286;7.518;2024-02-04T07:23:01;4.50;;;3.17;;
10056;SDS011;5068;51.286;7.518;2024-02-04T07:24:34;5.80;;;3.60;;
10056;SDS011;5068;51.286;7.518;2024-02-04T07:26:07;4.43;;;3.08;;
10056;SDS011;5068;51.286;7.518;2024-02-04T07:27:40;5.30;;;3.10;;
10056;SDS011;5068;51.286;7.518;2024-02-04T07:29:13;5.10;;;3.30;;
10056;SDS011;5068;51.286;7.518;2024-02-04T07:30:46;5.25;;;3.35;;
10056;SDS011;5068;51.286;7.518;2024-02-04T07:32:18;5.40;;;3.55;;
10056;SDS011;5068;51.286;7.518;2024-02-04T07:33:52;5.45;;;3.15;;
10056;SDS011;5068;51.286;7.518;2024-02-04T07:35:25;4.85;;;2.47;;
10056;SDS011;5068;51.286;7.518;2024-02-04T07:36:59;4.40;;;3.03;;
10056;SDS011;5068;51.286;7.518;2024-02-04T07:38:33;4.55;;;2.72;;
10056;SDS011;5068;51.286;7.518;2024-02-04T07:40:05;4.05;;;2.70;;
10056;SDS011;5068;51.286;7.518;2024-02-04T07:41:40;4.22;;;2.58;;
10056;SDS011;5068;51.286;7.518;2024-02-04T07:43:12;3.75;;;2.35;;
10056;SDS011;5068;51.286;7.518;2024-02-04T07:44:45;3.65;;;2.33;;
10056;SDS011;5068;51.286;7.518;2024-02-04T07:46:18;4.63;;;2.67;;
10056;SDS011;5068;51.286;7.518;2024-02-04T07:47:51;4.35;;;2.78;;
10056;SDS011;5068;51.286;7.518;2024-02-04T07:49:24;3.83;;;2.40;;
10056;SDS011;5068;51.286;7.518;2024-02-04T07:50:57;4.13;;;2.55;;
10056;SDS011;5068;51.286;7.518;2024-02-04T07:52:31;3.38;;;2.50;;
10056;SDS011;5068;51.286;7.518;2024-02-04T07:54:04;3.17;;;1.83;;
10056;SDS011;5068;51.286;7.518;2024-02-04T07:55:37;3.45;;;1.83;;
10056;SDS011;5068;51.286;7.518;2024-02-04T07:57:09;3.17;;;2.30;;
10056;SDS011;5068;51.286;7.518;2024-02-04T07:58:43;2.65;;;1.65;;
10056;SDS011;5068;51.286;7.518;2024-02-04T08:00:15;2.92;;;2.10;;
10056;SDS011;5068;51.286;7.518;2024-02-04T08:01:49;2.83;;;1.63;;
10056;SDS011;5068;51.286;7.518;2024-02-04T08:03:21;2.53;;;1.67;;
10056;SDS011;5068;51.286;7.518;2024-02-04T08:04:55;2.83;;;1.35;;
10056;SDS011;5068;51.286;7.518;2024-02-04T08:06:27;2.50;;;1.52;;
10056;SDS011;5068;51.286;7.518;2024-02-04T08:08:02;2.65;;;1.52;;
10056;SDS011;5068;51.286;7.518;2024-02-04T08:09:36;2.65;;;1.70;;
10056;SDS011;5068;51.286;7.518;2024-02-04T08:11:08;2.25;;;1.35;;
10056;SDS011;5068;51.286;7.518;2024-02-04T08:12:41;1.98;;;1.33;;
10056;SDS011;5068;51.286;7.518;2024-02-04T08:14:14;1.52;;;1.05;;
10056;SDS011;5068;51.286;7.518;2024-02-04T08:15:48;1.67;;;1.25;;
10056;SDS011;5068;51.286;7.518;2024-02-04T08:17:21;2.58;;;1.00;;
10056;SDS011;5068;51.286;7.518;2024-02-04T08:18:54;1.67;;;0.90;;
10056;SDS011;5068;51.286;7.518;2024-02-04T08:20:27;2.28;;;1.20;;
10056;SDS011;5068;51.286;7.518;2024-02-04T08:22:01;2.00;;;1.17;;
10056;SDS011;5068;51.286;7.518;2024-02-04T08:23:34;1.88;;;1.02;;
10056;SDS011;5068;51.286;7.518;2024-02-04T08:25:07;1.50;;;1.00;;
10056;SDS011;5068;51.286;7.518;2024-02-04T08:26:43;2.05;;;1.00;;
10056;SDS011;5068;51.286;7.518;2024-02-04T08:28:16;1.90;;;1.10;;
10056;SDS011;5068;51.286;7.518;2024-02-04T08:29:48;1.85;;;1.15;;
10056;SDS011;5068;51.286;7.518;2024-02-04T08:31:22;1.60;;;1.13;;
10056;SDS011;5068;51.286;7.518;2024-02-04T08:32:54;1.55;;;1.17;;
10056;SDS011;5068;51.286;7.518;2024-02-04T08:34:27;1.55;;;1.13;;
10056;SDS011;5068;51.286;7.518;2024-02-04T08:35:59;2.08;;;1.17;;
10056;SDS011;5068;51.286;7.518;2024-02-04T08:37:33;2.22;;;1.20;;
10056;SDS011;5068;51.286;7.518;2024-02-04T08:39:08;1.50;;;1.20;;
10056;SDS011;5068;51.286;7.518;2024-02-04T08:40:41;1.55;;;1.10;;
10056;SDS011;5068;51.286;7.518;2024-02-04T08:42:14;2.97;;;1.40;;
10056;SDS011;5068;51.286;7.518;2024-02-04T08:43:48;2.13;;;1.40;;
10056;SDS011;5068;51.286;7.518;2024-02-04T08:45:20;1.50;;;1.00;;
10056;SDS011;5068;51.286;7.518;2024-02-04T08:46:54;1.80;;;0.95;;
10056;SDS011;5068;51.286;7.518;2024-02-04T08:48:27;1.33;;;0.73;;
10056;SDS011;5068;51.286;7.518;2024-02-04T08:50:01;1.30;;;0.73;;
10056;SDS011;5068;51.286;7.518;2024-02-04T08:51:33;1.80;;;0.70;;
10056;SDS011;5068;51.286;7.518;2024-02-04T08:53:06;1.35;;;0.70;;
10056;SDS011;5068;51.286;7.518;2024-02-04T08:54:40;1.10;;;0.80;;
10056;SDS011;5068;51.286;7.518;2024-02-04T08:56:13;1.33;;;0.75;;
10056;SDS011;5068;51.286;7.518;2024-02-04T08:57:45;0.90;;;0.50;;
10056;SDS011;5068;51.286;7.518;2024-02-04T08:59:20;0.90;;;0.50;;
10056;SDS011;5068;51.286;7.518;2024-02-04T09:00:52;0.57;;;0.35;;
10056;SDS011;5068;51.286;7.518;2024-02-04T09:02:25;0.95;;;0.40;;
10056;SDS011;5068;51.286;7.518;2024-02-04T09:03:58;0.90;;;0.50;;
10056;SDS011;5068;51.286;7.518;2024-02-04T09:05:31;0.68;;;0.50;;
10056;SDS011;5068;51.286;7.518;2024-02-04T09:07:04;0.95;;;0.55;;
10056;SDS011;5068;51.286;7.518;2024-02-04T09:08:37;1.10;;;0.77;;
10056;SDS011;5068;51.286;7.518;2024-02-04T09:10:11;1.85;;;0.77;;
10056;SDS011;5068;51.286;7.518;2024-02-04T09:11:44;1.60;;;0.65;;
10056;SDS011;5068;51.286;7.518;2024-02-04T09:13:18;1.60;;;1.02;;
10056;SDS011;5068;51.286;7.518;2024-02-04T09:14:50;1.67;;;1.00;;
10056;SDS011;5068;51.286;7.518;2024-02-04T09:16:23;1.80;;;1.10;;
10056;SDS011;5068;51.286;7.518;2024-02-04T09:17:56;2.33;;;1.40;;
10056;SDS011;5068;51.286;7.518;2024-02-04T09:19:29;1.60;;;1.02;;
10056;SDS011;5068;51.286;7.518;2024-02-04T09:21:02;3.15;;;1.50;;
10056;SDS011;5068;51.286;7.518;2024-02-04T09:22:36;2.15;;;1.30;;
10056;SDS011;5068;51.286;7.518;2024-02-04T09:24:10;2.80;;;1.50;;
10056;SDS011;5068;51.286;7.518;2024-02-04T09:25:44;1.80;;;1.35;;
10056;SDS011;5068;51.286;7.518;2024-02-04T09:27:17;1.65;;;1.10;;
10056;SDS011;5068;51.286;7.518;2024-02-04T09:28:49;1.90;;;1.27;;
10056;SDS011;5068;51.286;7.518;2024-02-04T09:30:23;1.80;;;1.20;;
10056;SDS011;5068;51.286;7.518;2024-02-04T09:31:55;2.10;;;1.40;;
10056;SDS011;5068;51.286;7.518;2024-02-04T09:33:28;1.80;;;1.05;;
10056;SDS011;5068;51.286;7.518;2024-02-04T09:35:02;1.77;;;1.13;;
10056;SDS011;5068;51.286;7.518;2024-02-04T09:36:35;2.58;;;1.25;;